createdAt,value
2019-04-29T00:00:04.572Z,6.28
2019-04-29T00:00:09.572Z,4.48
2019-04-29T00:00:14.577Z,3.89
2019-04-29T00:00:19.578Z,3.69
2019-04-29T00:00:24.604Z,3.63
2019-04-29T00:00:29.596Z,3.61
2019-04-29T00:00:34.578Z,3.03
2019-04-29T00:00:39.580Z,4.71
2019-04-29T00:00:44.581Z,3.96
2019-04-29T00:00:49.586Z,3.72
2019-04-29T00:00:54.583Z,3.64
2019-04-29T00:00:59.585Z,3.61
2019-04-29T00:01:04.584Z,3.60
2019-04-29T00:01:09.586Z,3.60
2019-04-29T00:01:14.585Z,4.32
2019-04-29T00:01:19.586Z,5.54
2019-04-29T00:01:24.592Z,4.90
2019-04-29T00:01:29.591Z,4.60
2019-04-29T00:01:34.596Z,4.50
2019-04-29T00:01:39.591Z,3.90
2019-04-29T00:01:44.592Z,3.70
2019-04-29T00:01:49.595Z,3.63
2019-04-29T00:01:54.797Z,3.61
2019-04-29T00:01:59.597Z,5.36
2019-04-29T00:02:04.595Z,5.88
2019-04-29T00:02:09.598Z,4.64
2019-04-29T00:02:14.602Z,3.94
2019-04-29T00:02:19.598Z,3.71
2019-04-29T00:02:24.601Z,3.64
2019-04-29T00:02:29.599Z,3.61
2019-04-29T00:02:34.602Z,3.31
2019-04-29T00:02:39.604Z,3.50
2019-04-29T00:02:44.605Z,3.57
2019-04-29T00:02:49.605Z,3.59
2019-04-29T00:02:54.606Z,3.60
2019-04-29T00:02:59.606Z,3.60
2019-04-29T00:03:04.608Z,3.60
2019-04-29T00:03:09.611Z,3.60
2019-04-29T00:03:14.610Z,4.90
2019-04-29T00:03:19.613Z,5.98
2019-04-29T00:03:24.614Z,6.80
2019-04-29T00:03:29.745Z,4.94
2019-04-29T00:03:34.614Z,4.87
2019-04-29T00:03:39.614Z,4.02
2019-04-29T00:03:44.616Z,3.74
2019-04-29T00:03:49.614Z,5.40
2019-04-29T00:03:54.618Z,6.61
2019-04-29T00:03:59.619Z,6.29
2019-04-29T00:04:04.620Z,4.48
2019-04-29T00:04:09.620Z,3.89
2019-04-29T00:04:14.620Z,6.69
2019-04-29T00:04:19.621Z,5.85
2019-04-29T00:04:24.626Z,5.00
2019-04-29T00:04:29.622Z,5.82
2019-04-29T00:04:34.625Z,5.08
2019-04-29T00:04:39.626Z,4.09
2019-04-29T00:04:44.628Z,4.63
2019-04-29T00:04:49.628Z,6.36
2019-04-29T00:04:54.628Z,4.50
2019-04-29T00:04:59.630Z,3.90
2019-04-29T00:05:04.633Z,6.12
2019-04-29T00:05:09.632Z,5.14
2019-04-29T00:05:14.633Z,5.77
2019-04-29T00:05:19.634Z,4.97
2019-04-29T00:05:24.636Z,4.35
2019-04-29T00:05:29.635Z,5.97
2019-04-29T00:05:34.636Z,4.67
2019-04-29T00:05:39.638Z,3.95
2019-04-29T00:05:44.639Z,3.72
2019-04-29T00:05:49.641Z,3.64
2019-04-29T00:05:54.640Z,5.74
2019-04-29T00:05:59.642Z,6.72
2019-04-29T00:06:04.644Z,6.67
2019-04-29T00:06:21.859Z,3.96
2019-04-29T00:06:27.285Z,5.01
2019-04-29T00:06:31.862Z,4.36
2019-04-29T00:06:36.864Z,5.97
2019-04-29T00:06:42.421Z,5.50
2019-04-29T00:06:46.867Z,4.22
2019-04-29T00:06:51.865Z,4.63
2019-04-29T00:06:57.069Z,3.94
2019-04-29T00:07:01.867Z,3.71
2019-04-29T00:07:06.870Z,5.76
2019-04-29T00:07:11.870Z,6.73
2019-04-29T00:07:16.871Z,5.64
2019-04-29T00:07:21.878Z,5.93
2019-04-29T00:07:26.871Z,6.78
2019-04-29T00:07:31.876Z,4.94
2019-04-29T00:07:36.874Z,4.04
2019-04-29T00:07:41.885Z,4.78
2019-04-29T00:07:46.877Z,3.99
2019-04-29T00:07:51.881Z,5.43
2019-04-29T00:07:56.879Z,4.20
2019-04-29T00:08:01.882Z,4.98
2019-04-29T00:08:06.883Z,5.23
2019-04-29T00:08:11.881Z,5.98
2019-04-29T00:08:16.884Z,4.75
2019-04-29T00:08:21.884Z,5.73
2019-04-29T00:08:26.884Z,5.31
2019-04-29T00:08:31.884Z,4.46
2019-04-29T00:08:36.885Z,5.18
2019-04-29T00:08:41.887Z,4.78
2019-04-29T00:08:46.889Z,3.99
2019-04-29T00:08:51.888Z,4.30
2019-04-29T00:08:56.890Z,3.83
2019-04-29T00:09:01.892Z,3.68
2019-04-29T00:09:06.893Z,3.62
2019-04-29T00:09:11.893Z,3.61
2019-04-29T00:09:16.894Z,3.60
2019-04-29T00:09:21.900Z,5.27
2019-04-29T00:09:26.894Z,4.15
2019-04-29T00:09:31.898Z,3.78
2019-04-29T00:09:36.897Z,3.66
2019-04-29T00:09:41.898Z,3.62
2019-04-29T00:09:46.901Z,3.61
2019-04-29T00:09:51.901Z,3.60
2019-04-29T00:09:56.900Z,3.60
2019-04-29T00:10:02.125Z,4.54
2019-04-29T00:10:06.903Z,4.49
2019-04-29T00:10:11.904Z,3.89
2019-04-29T00:10:16.905Z,3.70
2019-04-29T00:10:21.907Z,3.63
2019-04-29T00:10:26.907Z,3.61
2019-04-29T00:10:31.909Z,3.60
2019-04-29T00:10:36.911Z,3.60
2019-04-29T00:10:41.910Z,3.60
2019-04-29T00:10:46.961Z,5.36
2019-04-29T00:10:51.912Z,4.54
2019-04-29T00:10:56.912Z,3.91
2019-04-29T00:11:01.915Z,3.70
2019-04-29T00:11:06.919Z,3.63
2019-04-29T00:11:11.914Z,3.61
2019-04-29T00:11:16.917Z,4.32
2019-04-29T00:11:21.918Z,4.50
2019-04-29T00:11:26.919Z,4.62
2019-04-29T00:11:31.920Z,4.23
2019-04-29T00:11:36.921Z,3.81
2019-04-29T00:11:41.922Z,4.96
2019-04-29T00:11:46.922Z,4.71
2019-04-29T00:11:51.925Z,3.96
2019-04-29T00:11:56.923Z,3.72
2019-04-29T00:12:01.926Z,3.64
2019-04-29T00:12:06.926Z,3.61
2019-04-29T00:12:11.926Z,3.60
2019-04-29T00:12:16.929Z,3.60
2019-04-29T00:12:21.931Z,4.06
2019-04-29T00:12:26.931Z,3.75
2019-04-29T00:12:31.932Z,3.65
2019-04-29T00:12:36.932Z,3.62
2019-04-29T00:12:41.932Z,3.61
2019-04-29T00:12:46.934Z,3.60
2019-04-29T00:12:51.935Z,3.60
2019-04-29T00:12:56.938Z,3.60
2019-04-29T00:13:01.936Z,3.14
2019-04-29T00:13:06.939Z,3.45
2019-04-29T00:13:11.938Z,3.55
2019-04-29T00:13:16.940Z,3.58
2019-04-29T00:13:21.943Z,3.59
2019-04-29T00:13:26.943Z,3.14
2019-04-29T00:13:31.942Z,3.45
2019-04-29T00:13:36.944Z,3.55
2019-04-29T00:13:41.947Z,3.01
2019-04-29T00:13:46.948Z,3.41
2019-04-29T00:13:51.947Z,3.54
2019-04-29T00:13:56.948Z,3.58
2019-04-29T00:14:01.950Z,3.59
2019-04-29T00:14:06.951Z,3.60
2019-04-29T00:14:11.953Z,3.60
2019-04-29T00:14:17.145Z,3.60
2019-04-29T00:14:21.953Z,3.60
2019-04-29T00:14:26.957Z,3.89
2019-04-29T00:14:31.955Z,4.99
2019-04-29T00:14:36.955Z,6.48
2019-04-29T00:14:41.957Z,5.67
2019-04-29T00:14:46.957Z,4.28
2019-04-29T00:14:51.958Z,3.82
2019-04-29T00:14:56.959Z,3.67
2019-04-29T00:15:01.962Z,3.62
2019-04-29T00:15:06.961Z,5.36
2019-04-29T00:15:12.589Z,5.51
2019-04-29T00:15:16.964Z,5.10
2019-04-29T00:15:21.972Z,4.09
2019-04-29T00:15:26.966Z,4.48
2019-04-29T00:15:31.966Z,3.89
2019-04-29T00:15:36.968Z,4.41
2019-04-29T00:15:41.969Z,4.53
2019-04-29T00:15:46.970Z,3.90
2019-04-29T00:15:51.970Z,5.83
2019-04-29T00:15:56.970Z,5.57
2019-04-29T00:16:01.972Z,4.25
2019-04-29T00:16:06.972Z,3.81
2019-04-29T00:16:11.975Z,3.67
2019-04-29T00:16:16.975Z,3.62
2019-04-29T00:16:21.977Z,4.33
2019-04-29T00:16:26.977Z,3.84
2019-04-29T00:16:31.979Z,3.68
2019-04-29T00:16:36.980Z,3.63
2019-04-29T00:16:41.981Z,3.61
2019-04-29T00:16:46.981Z,3.60
2019-04-29T00:16:51.979Z,5.30
2019-04-29T00:16:57.026Z,4.16
2019-04-29T00:17:02.025Z,4.36
2019-04-29T00:17:07.026Z,4.57
2019-04-29T00:17:12.029Z,6.04
2019-04-29T00:17:17.029Z,5.52
2019-04-29T00:17:22.029Z,6.65
2019-04-29T00:17:27.029Z,7.02
2019-04-29T00:17:32.033Z,5.02
2019-04-29T00:17:37.033Z,5.76
2019-04-29T00:17:42.036Z,6.01
2019-04-29T00:17:47.034Z,4.76
2019-04-29T00:17:52.037Z,5.28
2019-04-29T00:17:57.036Z,6.57
2019-04-29T00:18:02.037Z,6.99
2019-04-29T00:18:07.039Z,7.13
2019-04-29T00:18:12.041Z,7.18
2019-04-29T00:18:17.040Z,4.77
2019-04-29T00:18:22.044Z,6.11
2019-04-29T00:18:27.043Z,6.84
2019-04-29T00:18:32.044Z,6.62
2019-04-29T00:18:37.045Z,7.01
2019-04-29T00:18:42.046Z,7.14
2019-04-29T00:18:47.048Z,5.05
2019-04-29T00:18:52.048Z,4.08
2019-04-29T00:18:57.050Z,5.05
2019-04-29T00:19:02.050Z,5.55
2019-04-29T00:19:07.053Z,5.72
2019-04-29T00:19:12.051Z,6.71
2019-04-29T00:19:17.053Z,5.38
2019-04-29T00:19:22.054Z,5.36
2019-04-29T00:19:27.055Z,5.47
2019-04-29T00:19:32.056Z,6.63
2019-04-29T00:19:37.058Z,6.55
2019-04-29T00:19:42.057Z,4.86
2019-04-29T00:19:47.058Z,5.77
2019-04-29T00:19:52.058Z,6.73
2019-04-29T00:19:57.059Z,7.05
2019-04-29T00:20:02.061Z,6.39
2019-04-29T00:20:07.062Z,4.88
2019-04-29T00:20:12.063Z,5.72
2019-04-29T00:20:17.065Z,6.35
2019-04-29T00:20:22.066Z,4.87
2019-04-29T00:20:27.068Z,6.44
2019-04-29T00:20:32.065Z,4.90
2019-04-29T00:20:37.068Z,4.75
2019-04-29T00:20:42.068Z,5.82
2019-04-29T00:20:47.072Z,6.38
2019-04-29T00:20:52.071Z,6.93
2019-04-29T00:20:57.072Z,6.54
2019-04-29T00:21:02.072Z,6.04
2019-04-29T00:21:08.140Z,4.97
2019-04-29T00:21:12.073Z,6.47
2019-04-29T00:21:17.076Z,5.67
2019-04-29T00:21:22.075Z,5.00
2019-04-29T00:21:27.078Z,6.48
2019-04-29T00:21:32.081Z,5.21
2019-04-29T00:21:37.079Z,4.13
2019-04-29T00:21:42.081Z,3.77
2019-04-29T00:21:47.081Z,5.78
2019-04-29T00:21:52.083Z,6.16
2019-04-29T00:21:57.082Z,6.86
2019-04-29T00:22:02.086Z,6.42
2019-04-29T00:22:07.689Z,5.65
2019-04-29T00:22:12.092Z,5.45
2019-04-29T00:22:17.088Z,4.50
2019-04-29T00:22:22.089Z,3.90
2019-04-29T00:22:27.089Z,4.42
2019-04-29T00:22:32.090Z,6.29
2019-04-29T00:22:37.092Z,6.24
2019-04-29T00:22:42.092Z,6.88
2019-04-29T00:22:47.097Z,4.97
2019-04-29T00:22:52.093Z,6.17
2019-04-29T00:22:57.095Z,5.92
2019-04-29T00:23:02.097Z,6.78
2019-04-29T00:23:07.096Z,4.64
2019-04-29T00:23:12.098Z,4.66
2019-04-29T00:23:17.149Z,4.70
2019-04-29T00:23:22.099Z,4.54
2019-04-29T00:23:27.101Z,4.20
2019-04-29T00:23:32.102Z,3.80
2019-04-29T00:23:37.103Z,3.66
2019-04-29T00:23:42.103Z,3.62
2019-04-29T00:23:47.106Z,4.90
2019-04-29T00:23:52.107Z,5.15
2019-04-29T00:23:57.105Z,4.11
2019-04-29T00:24:02.115Z,3.77
2019-04-29T00:24:07.119Z,3.65
2019-04-29T00:24:12.157Z,4.34
2019-04-29T00:24:17.123Z,3.84
2019-04-29T00:24:22.162Z,3.68
2019-04-29T00:24:27.114Z,3.63
2019-04-29T00:24:32.114Z,3.61
2019-04-29T00:24:37.181Z,3.90
2019-04-29T00:24:42.188Z,4.99
2019-04-29T00:24:47.116Z,4.78
2019-04-29T00:24:52.127Z,4.65
2019-04-29T00:24:57.121Z,3.94
2019-04-29T00:25:02.169Z,5.47
2019-04-29T00:25:07.120Z,6.06
2019-04-29T00:25:12.120Z,5.53
2019-04-29T00:25:17.122Z,4.23
2019-04-29T00:25:22.123Z,5.93
2019-04-29T00:25:27.125Z,6.32
2019-04-29T00:25:32.124Z,5.73
2019-04-29T00:25:37.126Z,5.75
2019-04-29T00:25:42.125Z,4.67
2019-04-29T00:25:47.129Z,3.95
2019-04-29T00:25:52.129Z,5.47
2019-04-29T00:25:57.130Z,5.91
2019-04-29T00:26:02.131Z,5.11
2019-04-29T00:26:07.130Z,4.82
2019-04-29T00:26:12.132Z,6.42
2019-04-29T00:26:17.134Z,6.65
2019-04-29T00:26:22.134Z,7.02
2019-04-29T00:26:27.137Z,7.14
2019-04-29T00:26:32.138Z,5.13
2019-04-29T00:26:37.137Z,5.51
2019-04-29T00:26:42.139Z,5.82
2019-04-29T00:26:47.141Z,6.75
2019-04-29T00:26:52.141Z,6.30
2019-04-29T00:26:57.140Z,6.54
2019-04-29T00:27:02.141Z,6.98
2019-04-29T00:27:07.144Z,6.30
2019-04-29T00:27:12.144Z,6.90
2019-04-29T00:27:17.145Z,6.38
2019-04-29T00:27:22.148Z,5.38
2019-04-29T00:27:27.148Z,6.60
2019-04-29T00:27:32.149Z,6.18
2019-04-29T00:27:37.603Z,6.86
2019-04-29T00:27:42.150Z,4.96
2019-04-29T00:27:47.150Z,4.77
2019-04-29T00:27:52.151Z,3.98
2019-04-29T00:27:57.151Z,3.73
2019-04-29T00:28:02.154Z,3.64
2019-04-29T00:28:07.155Z,5.74
2019-04-29T00:28:12.155Z,6.72
2019-04-29T00:28:17.157Z,6.01
2019-04-29T00:28:22.158Z,6.81
2019-04-29T00:28:27.158Z,7.07
2019-04-29T00:28:32.159Z,6.58
2019-04-29T00:28:37.161Z,7.00
2019-04-29T00:28:42.161Z,6.67
2019-04-29T00:28:47.163Z,7.03
2019-04-29T00:28:52.164Z,7.14
2019-04-29T00:28:57.168Z,7.18
2019-04-29T00:29:02.165Z,7.19
2019-04-29T00:29:07.166Z,5.53
2019-04-29T00:29:12.166Z,6.65
2019-04-29T00:29:17.168Z,7.02
2019-04-29T00:29:22.169Z,6.85
2019-04-29T00:29:27.169Z,7.08
2019-04-29T00:29:32.171Z,6.44
2019-04-29T00:29:37.173Z,6.66
2019-04-29T00:29:42.174Z,5.36
2019-04-29T00:29:47.173Z,5.47
2019-04-29T00:29:52.176Z,6.63
2019-04-29T00:29:57.175Z,7.01
2019-04-29T00:30:02.178Z,7.14
2019-04-29T00:30:07.179Z,7.18
2019-04-29T00:30:12.178Z,7.19
2019-04-29T00:30:17.180Z,6.48
2019-04-29T00:30:22.180Z,6.67
2019-04-29T00:30:27.183Z,7.03
2019-04-29T00:30:32.182Z,7.14
2019-04-29T00:30:37.540Z,6.72
2019-04-29T00:30:42.183Z,7.04
2019-04-29T00:30:47.185Z,6.39
2019-04-29T00:30:52.187Z,6.94
2019-04-29T00:30:57.187Z,7.11
2019-04-29T00:31:02.188Z,7.17
2019-04-29T00:31:07.190Z,7.19
2019-04-29T00:31:12.189Z,7.20
2019-04-29T00:31:17.191Z,7.20
2019-04-29T00:31:22.194Z,4.78
2019-04-29T00:31:27.192Z,6.41
2019-04-29T00:31:32.194Z,5.28
2019-04-29T00:31:37.195Z,5.33
2019-04-29T00:31:42.198Z,5.04
2019-04-29T00:31:47.197Z,4.07
2019-04-29T00:31:52.199Z,4.70
2019-04-29T00:31:57.200Z,6.38
2019-04-29T00:32:02.202Z,5.75
2019-04-29T00:32:07.200Z,4.30
2019-04-29T00:32:12.203Z,3.83
2019-04-29T00:32:17.202Z,3.68
2019-04-29T00:32:22.203Z,4.34
2019-04-29T00:32:27.204Z,5.54
2019-04-29T00:32:32.206Z,5.83
2019-04-29T00:32:37.207Z,4.70
2019-04-29T00:32:42.208Z,6.38
2019-04-29T00:32:47.210Z,5.27
2019-04-29T00:32:52.211Z,4.15
2019-04-29T00:32:57.211Z,3.78
2019-04-29T00:33:02.209Z,5.78
2019-04-29T00:33:07.211Z,5.07
2019-04-29T00:33:12.213Z,4.08
2019-04-29T00:33:17.215Z,3.76
2019-04-29T00:33:22.213Z,3.65
2019-04-29T00:33:27.215Z,3.62
2019-04-29T00:33:32.216Z,3.61
2019-04-29T00:33:37.217Z,3.60
2019-04-29T00:33:42.218Z,3.60
2019-04-29T00:33:47.222Z,4.32
2019-04-29T00:33:52.220Z,4.59
2019-04-29T00:33:57.221Z,3.92
2019-04-29T00:34:02.221Z,3.71
2019-04-29T00:34:07.223Z,3.63
2019-04-29T00:34:12.359Z,3.61
2019-04-29T00:34:17.224Z,5.36
2019-04-29T00:34:22.227Z,6.02
2019-04-29T00:34:27.228Z,6.45
2019-04-29T00:34:32.227Z,6.95
2019-04-29T00:34:37.228Z,7.12
2019-04-29T00:34:42.231Z,7.17
2019-04-29T00:34:47.243Z,8.32
2019-04-29T00:34:52.242Z,7.57
2019-04-29T00:34:57.246Z,6.14
2019-04-29T00:35:02.244Z,6.56
2019-04-29T00:35:07.244Z,6.99
2019-04-29T00:35:12.248Z,7.13
2019-04-29T00:35:17.246Z,7.18
2019-04-29T00:35:22.249Z,7.19
2019-04-29T00:35:27.249Z,7.20
2019-04-29T00:35:32.254Z,5.44
2019-04-29T00:35:37.256Z,6.33
2019-04-29T00:35:42.254Z,8.21
2019-04-29T00:35:47.255Z,7.53
2019-04-29T00:35:52.254Z,7.31
2019-04-29T00:35:57.256Z,7.24
2019-04-29T00:36:02.259Z,7.93
2019-04-29T00:36:07.257Z,8.56
2019-04-29T00:36:12.260Z,7.65
2019-04-29T00:36:17.261Z,8.07
2019-04-29T00:36:22.260Z,8.20
2019-04-29T00:36:27.262Z,7.53
2019-04-29T00:36:32.263Z,7.31
2019-04-29T00:36:37.264Z,7.24
2019-04-29T00:36:42.263Z,7.79
2019-04-29T00:36:47.266Z,8.57
2019-04-29T00:36:52.267Z,7.65
2019-04-29T00:36:57.268Z,7.35
2019-04-29T00:37:02.269Z,8.91
2019-04-29T00:37:07.271Z,9.09
2019-04-29T00:37:12.273Z,7.82
2019-04-29T00:37:17.271Z,7.40
2019-04-29T00:37:22.272Z,7.27
2019-04-29T00:37:27.274Z,9.35
2019-04-29T00:37:32.274Z,7.90
2019-04-29T00:37:37.275Z,7.43
2019-04-29T00:37:42.276Z,7.28
2019-04-29T00:37:47.277Z,7.22
2019-04-29T00:37:52.279Z,7.21
2019-04-29T00:37:57.282Z,7.20
2019-04-29T00:38:02.280Z,7.20
2019-04-29T00:38:07.279Z,7.20
2019-04-29T00:38:12.281Z,7.20
2019-04-29T00:38:17.282Z,7.20
2019-04-29T00:38:22.284Z,7.20
2019-04-29T00:38:27.518Z,7.20
2019-04-29T00:38:32.285Z,7.20
2019-04-29T00:38:37.287Z,5.07
2019-04-29T00:38:42.287Z,4.08
2019-04-29T00:38:47.290Z,5.52
2019-04-29T00:38:52.291Z,6.65
2019-04-29T00:38:57.289Z,7.02
2019-04-29T00:39:02.292Z,6.68
2019-04-29T00:39:07.291Z,7.03
2019-04-29T00:39:12.292Z,6.78
2019-04-29T00:39:17.293Z,6.69
2019-04-29T00:39:22.295Z,7.03
2019-04-29T00:39:27.297Z,7.15
2019-04-29T00:39:32.295Z,7.18
2019-04-29T00:39:37.298Z,6.73
2019-04-29T00:39:42.299Z,7.05
2019-04-29T00:39:47.300Z,5.85
2019-04-29T00:39:52.301Z,4.80
2019-04-29T00:39:57.304Z,6.04
2019-04-29T00:40:02.302Z,6.45
2019-04-29T00:40:07.307Z,4.53
2019-04-29T00:40:12.305Z,5.09
2019-04-29T00:40:17.307Z,4.81
2019-04-29T00:40:22.308Z,5.55
2019-04-29T00:40:27.307Z,5.90
2019-04-29T00:40:32.309Z,6.77
2019-04-29T00:40:37.310Z,7.06
2019-04-29T00:40:42.310Z,5.03
2019-04-29T00:40:47.312Z,5.31
2019-04-29T00:40:52.312Z,4.16
2019-04-29T00:40:57.313Z,3.78
2019-04-29T00:41:02.315Z,3.66
2019-04-29T00:41:07.317Z,3.62
2019-04-29T00:41:12.317Z,3.61
2019-04-29T00:41:17.319Z,3.60
2019-04-29T00:41:22.319Z,5.73
2019-04-29T00:41:27.319Z,4.30
2019-04-29T00:41:32.549Z,4.55
2019-04-29T00:41:37.320Z,4.37
2019-04-29T00:41:42.321Z,3.85
2019-04-29T00:41:47.323Z,3.68
2019-04-29T00:41:52.323Z,4.00
2019-04-29T00:41:57.326Z,3.73
2019-04-29T00:42:02.328Z,3.64
2019-04-29T00:42:07.329Z,5.74
2019-04-29T00:42:12.328Z,5.06
2019-04-29T00:42:17.330Z,4.08
2019-04-29T00:42:22.328Z,3.76
2019-04-29T00:42:27.533Z,3.65
2019-04-29T00:42:32.333Z,3.62
2019-04-29T00:42:37.333Z,3.61
2019-04-29T00:42:42.334Z,3.60
2019-04-29T00:42:47.336Z,3.60
2019-04-29T00:42:53.006Z,3.60
2019-04-29T00:42:57.337Z,3.60
2019-04-29T00:43:02.336Z,3.60
2019-04-29T00:43:07.340Z,3.60
2019-04-29T00:43:12.339Z,3.60
2019-04-29T00:43:17.342Z,3.60
2019-04-29T00:43:22.343Z,3.60
2019-04-29T00:43:27.342Z,3.60
2019-04-29T00:43:32.342Z,5.36
2019-04-29T00:43:37.343Z,4.47
2019-04-29T00:43:42.343Z,3.89
2019-04-29T00:43:47.348Z,4.87
2019-04-29T00:43:52.347Z,4.02
2019-04-29T00:43:57.348Z,4.31
2019-04-29T00:44:02.347Z,4.13
2019-04-29T00:44:07.350Z,4.53
2019-04-29T00:44:12.351Z,4.62
2019-04-29T00:44:17.352Z,4.51
2019-04-29T00:44:22.353Z,3.90
2019-04-29T00:44:28.020Z,3.70
2019-04-29T00:44:32.353Z,3.63
2019-04-29T00:44:37.358Z,3.61
2019-04-29T00:44:42.356Z,3.60
2019-04-29T00:44:47.357Z,5.36
2019-04-29T00:44:52.357Z,5.30
2019-04-29T00:44:57.363Z,4.45
2019-04-29T00:45:02.360Z,3.88
2019-04-29T00:45:07.361Z,3.69
2019-04-29T00:45:12.360Z,3.26
2019-04-29T00:45:17.369Z,3.49
2019-04-29T00:45:22.364Z,5.11
2019-04-29T00:45:27.364Z,4.10
2019-04-29T00:45:32.365Z,3.76
2019-04-29T00:45:37.367Z,3.65
2019-04-29T00:45:42.370Z,3.62
2019-04-29T00:45:47.369Z,3.61
2019-04-29T00:45:52.370Z,5.01
2019-04-29T00:45:57.373Z,4.06
2019-04-29T00:46:02.371Z,3.75
2019-04-29T00:46:07.372Z,3.65
2019-04-29T00:46:12.375Z,3.62
2019-04-29T00:46:17.375Z,2.06
2019-04-29T00:46:22.378Z,4.39
2019-04-29T00:46:27.380Z,6.28
2019-04-29T00:46:32.379Z,6.18
2019-04-29T00:46:37.380Z,4.74
2019-04-29T00:46:42.381Z,5.38
2019-04-29T00:46:47.380Z,4.94
2019-04-29T00:46:52.383Z,5.70
2019-04-29T00:46:57.383Z,6.71
2019-04-29T00:47:02.384Z,4.91
2019-04-29T00:47:07.384Z,6.16
2019-04-29T00:47:12.386Z,5.68
2019-04-29T00:47:17.387Z,4.58
2019-04-29T00:47:22.387Z,4.64
2019-04-29T00:47:27.389Z,4.60
2019-04-29T00:47:32.389Z,6.35
2019-04-29T00:47:37.390Z,5.88
2019-04-29T00:47:42.393Z,6.77
2019-04-29T00:47:47.394Z,6.34
2019-04-29T00:47:52.394Z,6.55
2019-04-29T00:47:57.394Z,6.99
2019-04-29T00:48:02.396Z,7.13
2019-04-29T00:48:07.398Z,7.18
2019-04-29T00:48:12.399Z,7.19
2019-04-29T00:48:17.521Z,7.20
2019-04-29T00:48:22.400Z,5.44
2019-04-29T00:48:27.401Z,6.62
2019-04-29T00:48:32.401Z,7.01
2019-04-29T00:48:37.410Z,7.14
2019-04-29T00:48:42.403Z,6.46
2019-04-29T00:48:47.402Z,6.66
2019-04-29T00:48:52.405Z,5.99
2019-04-29T00:48:57.406Z,6.51
2019-04-29T00:49:02.406Z,5.57
2019-04-29T00:49:07.409Z,6.67
2019-04-29T00:49:12.409Z,7.02
2019-04-29T00:49:17.409Z,7.14
2019-04-29T00:49:23.049Z,6.89
2019-04-29T00:49:27.410Z,7.10
2019-04-29T00:49:32.412Z,7.17
2019-04-29T00:49:37.415Z,7.56
2019-04-29T00:49:42.414Z,5.84
2019-04-29T00:49:47.415Z,4.63
2019-04-29T00:49:52.415Z,5.03
2019-04-29T00:49:57.418Z,4.79
2019-04-29T00:50:02.416Z,5.69
2019-04-29T00:50:07.419Z,4.58
2019-04-29T00:50:12.421Z,3.92
2019-04-29T00:50:17.423Z,3.71
2019-04-29T00:50:22.423Z,5.69
2019-04-29T00:50:27.422Z,6.70
2019-04-29T00:50:32.422Z,6.46
2019-04-29T00:50:37.423Z,6.66
2019-04-29T00:50:42.425Z,5.27
2019-04-29T00:50:47.425Z,4.15
2019-04-29T00:50:52.679Z,3.78
2019-04-29T00:50:57.428Z,4.95
2019-04-29T00:51:02.431Z,4.71
2019-04-29T00:51:07.431Z,6.09
2019-04-29T00:51:12.433Z,6.37
2019-04-29T00:51:17.434Z,5.99
2019-04-29T00:51:22.434Z,5.56
2019-04-29T00:51:27.435Z,6.66
2019-04-29T00:51:32.435Z,4.97
2019-04-29T00:51:37.437Z,5.53
2019-04-29T00:51:42.437Z,6.65
2019-04-29T00:51:47.438Z,6.44
2019-04-29T00:51:52.439Z,4.53
2019-04-29T00:51:57.439Z,4.63
2019-04-29T00:52:02.441Z,5.60
2019-04-29T00:52:07.442Z,4.92
2019-04-29T00:52:12.441Z,4.03
2019-04-29T00:52:17.444Z,4.92
2019-04-29T00:52:22.445Z,4.03
2019-04-29T00:52:27.448Z,6.16
2019-04-29T00:52:32.448Z,6.14
2019-04-29T00:52:37.451Z,5.30
2019-04-29T00:52:42.453Z,5.28
2019-04-29T00:52:47.449Z,4.15
2019-04-29T00:52:52.451Z,6.20
2019-04-29T00:52:57.452Z,4.45
2019-04-29T00:53:02.453Z,4.17
2019-04-29T00:53:07.454Z,5.54
2019-04-29T00:53:12.456Z,6.66
2019-04-29T00:53:17.455Z,4.97
2019-04-29T00:53:22.456Z,5.38
2019-04-29T00:53:27.458Z,4.18
2019-04-29T00:53:32.458Z,4.16
2019-04-29T00:53:37.459Z,5.08
2019-04-29T00:53:42.710Z,4.38
2019-04-29T00:53:47.463Z,5.52
2019-04-29T00:53:52.463Z,5.82
2019-04-29T00:53:57.462Z,5.57
2019-04-29T00:54:02.463Z,4.54
2019-04-29T00:54:07.465Z,3.91
2019-04-29T00:54:12.465Z,4.28
2019-04-29T00:54:17.471Z,4.19
2019-04-29T00:54:22.469Z,4.51
2019-04-29T00:54:27.473Z,5.74
2019-04-29T00:54:32.471Z,4.30
2019-04-29T00:54:37.473Z,3.83
2019-04-29T00:54:42.472Z,4.40
2019-04-29T00:54:47.596Z,5.10
2019-04-29T00:54:52.473Z,6.51
2019-04-29T00:54:57.475Z,6.40
2019-04-29T00:55:02.476Z,4.52
2019-04-29T00:55:07.477Z,3.90
2019-04-29T00:55:12.478Z,4.27
2019-04-29T00:55:17.478Z,3.82
2019-04-29T00:55:22.479Z,3.67
2019-04-29T00:55:27.479Z,5.38
2019-04-29T00:55:32.481Z,6.03
2019-04-29T00:55:37.482Z,4.40
2019-04-29T00:55:42.483Z,3.86
2019-04-29T00:55:47.483Z,3.69
2019-04-29T00:55:52.484Z,3.63
2019-04-29T00:55:57.486Z,4.62
2019-04-29T00:56:02.771Z,4.66
2019-04-29T00:56:07.536Z,6.37
2019-04-29T00:56:12.535Z,5.17
2019-04-29T00:56:17.537Z,4.11
2019-04-29T00:56:22.540Z,3.77
2019-04-29T00:56:27.539Z,3.66
2019-04-29T00:56:32.541Z,3.62
2019-04-29T00:56:37.545Z,4.33
2019-04-29T00:56:42.544Z,6.26
2019-04-29T00:56:47.545Z,4.47
2019-04-29T00:56:52.545Z,3.89
2019-04-29T00:56:57.547Z,3.69
2019-04-29T00:57:02.556Z,4.35
2019-04-29T00:57:07.546Z,4.14
2019-04-29T00:57:12.548Z,3.78
2019-04-29T00:57:17.550Z,3.66
2019-04-29T00:57:22.552Z,5.38
2019-04-29T00:57:27.552Z,5.31
2019-04-29T00:57:32.553Z,4.16
2019-04-29T00:57:37.553Z,4.36
2019-04-29T00:57:42.554Z,6.27
2019-04-29T00:57:47.558Z,5.14
2019-04-29T00:57:52.555Z,5.14
2019-04-29T00:57:57.557Z,6.53
2019-04-29T00:58:02.559Z,5.74
2019-04-29T00:58:07.560Z,6.35
2019-04-29T00:58:12.561Z,6.20
2019-04-29T00:58:17.560Z,5.75
2019-04-29T00:58:22.561Z,6.72
2019-04-29T00:58:27.565Z,7.04
2019-04-29T00:58:32.565Z,5.02
2019-04-29T00:58:37.564Z,4.07
2019-04-29T00:58:42.567Z,3.75
2019-04-29T00:58:47.640Z,4.23
2019-04-29T00:58:52.572Z,3.81
2019-04-29T00:58:57.570Z,4.39
2019-04-29T00:59:02.571Z,4.23
2019-04-29T00:59:07.571Z,5.56
2019-04-29T00:59:12.571Z,6.66
2019-04-29T00:59:17.575Z,5.84
2019-04-29T00:59:22.573Z,6.46
2019-04-29T00:59:27.574Z,6.96
2019-04-29T00:59:32.574Z,7.12
2019-04-29T00:59:37.576Z,7.17
2019-04-29T00:59:42.577Z,7.19
2019-04-29T00:59:47.719Z,7.20
2019-04-29T00:59:52.578Z,6.48
2019-04-29T00:59:57.579Z,5.84
2019-04-29T01:00:02.581Z,5.57
2019-04-29T01:00:07.583Z,5.43
2019-04-29T01:00:12.582Z,6.62
2019-04-29T01:00:17.588Z,7.01
2019-04-29T01:00:22.585Z,7.14
2019-04-29T01:00:27.587Z,7.18
2019-04-29T01:00:32.587Z,7.19
2019-04-29T01:00:37.591Z,7.20
2019-04-29T01:00:42.631Z,6.48
2019-04-29T01:00:47.590Z,6.67
2019-04-29T01:00:52.592Z,7.03
2019-04-29T01:00:57.592Z,7.14
2019-04-29T01:01:02.593Z,7.18
2019-04-29T01:01:07.593Z,7.19
2019-04-29T01:01:12.593Z,7.66
2019-04-29T01:01:17.594Z,7.35
2019-04-29T01:01:22.597Z,7.25
2019-04-29T01:01:27.600Z,7.22
2019-04-29T01:01:32.598Z,7.21
2019-04-29T01:01:37.601Z,7.20
2019-04-29T01:01:42.602Z,7.20
2019-04-29T01:01:47.602Z,7.20
2019-04-29T01:01:52.602Z,7.20
2019-04-29T01:01:57.602Z,7.20
2019-04-29T01:02:02.606Z,7.20
2019-04-29T01:02:07.614Z,7.96
2019-04-29T01:02:12.604Z,9.57
2019-04-29T01:02:17.607Z,10.10
2019-04-29T01:02:22.609Z,9.53
2019-04-29T01:02:27.613Z,9.81
2019-04-29T01:02:32.609Z,8.06
2019-04-29T01:02:37.610Z,8.78
2019-04-29T01:02:42.612Z,9.56
2019-04-29T01:02:47.617Z,7.97
2019-04-29T01:02:52.615Z,7.45
2019-04-29T01:02:57.614Z,7.28
2019-04-29T01:03:02.616Z,7.23
2019-04-29T01:03:07.616Z,7.21
2019-04-29T01:03:12.618Z,7.20
2019-04-29T01:03:17.619Z,7.20
2019-04-29T01:03:22.621Z,7.50
2019-04-29T01:03:27.621Z,7.30
2019-04-29T01:03:32.621Z,6.86
2019-04-29T01:03:37.623Z,7.09
2019-04-29T01:03:42.712Z,7.16
2019-04-29T01:03:47.625Z,6.89
2019-04-29T01:03:52.626Z,7.10
2019-04-29T01:03:57.627Z,6.45
2019-04-29T01:04:02.740Z,5.86
2019-04-29T01:04:07.628Z,5.52
2019-04-29T01:04:12.630Z,6.28
2019-04-29T01:04:17.629Z,6.90
2019-04-29T01:04:22.631Z,7.10
2019-04-29T01:04:27.631Z,7.17
2019-04-29T01:04:32.633Z,5.43
2019-04-29T01:04:37.637Z,5.87
2019-04-29T01:04:42.636Z,6.04
2019-04-29T01:04:47.636Z,5.16
2019-04-29T01:04:52.636Z,4.11
2019-04-29T01:04:57.637Z,5.52
2019-04-29T01:05:02.639Z,6.07
2019-04-29T01:05:07.639Z,6.83
2019-04-29T01:05:12.642Z,6.42
2019-04-29T01:05:17.642Z,6.57
2019-04-29T01:05:22.643Z,6.99
2019-04-29T01:05:27.644Z,7.13
2019-04-29T01:05:32.643Z,7.18
2019-04-29T01:05:37.644Z,7.19
2019-04-29T01:05:42.647Z,7.20
2019-04-29T01:05:47.649Z,6.62
2019-04-29T01:05:52.652Z,6.29
2019-04-29T01:05:58.465Z,5.57
2019-04-29T01:06:02.649Z,6.37
2019-04-29T01:06:07.887Z,6.93
2019-04-29T01:06:12.982Z,6.53
2019-04-29T01:06:17.652Z,6.41
2019-04-29T01:06:22.653Z,5.61
2019-04-29T01:06:27.655Z,7.25
2019-04-29T01:06:33.124Z,7.22
2019-04-29T01:06:37.656Z,8.24
2019-04-29T01:06:42.657Z,7.54
2019-04-29T01:06:47.660Z,9.44